Etusivu
METAR-TAF:

METAR-TAF

Lentoasemat :

Greenville Downtown Airport

Greenville, Etelä-Carolina, Yhdysvallat

Leveyspiiri: 34-50-46N, Pituuspiiri: 082-20-46W, korkeus merenpinnasta: 319 m

Tämänhetkinen sää

Tämä raportti tehtiin 48 minuuttia sitten, kello 16.53 UTC
Tuuli 5 kn etelästä/lounaasta
Lämpötila 9°C
Kosteus 37%
Ilmanpaine 1031 hPa
Näkyvyys: 16.1 km
selkeää

METAR: KGMU 221653Z 21005KT 10SM CLR 09/M05 A3044 RMK AO2 SLP312 T00941050

Aika: 12:41 (17:41 UTC)

Sääennuste

Tämä raportti tehtiin 21 minuuttia sitten, kello 17.20 UTC
Ennuste voimassa 22. päivästä klo 18 UTC - 23. päivään klo 18 UTC
Tuuli 4 kn lounaasta
Näkyvyys: 10 km
selkeää

TAF: KGMU 221720Z 2218/2318 23004KT P6SM SKC

Säähavainnot ja -ennusteet yli 4000 lentoasemalta (METAR- ja TAF-raportit).

Käytössä olevat sääasemat on merkitty karttaan keltaisilla ja punaisilla pisteillä.

Aseta hiiri pisteen päälle nähdäksesi sääaseman nimen.

Klikkaa sitten nähdäksesi säähavainnot ja -ennusteet.

Kartan vaihtaminen: klikkaa mustalla rastilla varustettuja vihreitä pisteitä, niin voit zoomata sisään; viivalla varustettua vihreää pistettä, niin voit zoomata ulos tai vihreitä nuolia, niin pääset viereisille kartoille.


METAR-TAF: